sensor_id;sensor_type;location;lat;lon;timestamp;P1;durP1;ratioP1;P2;durP2;ratioP2
2784;SDS011;57944;48.722;9.316;2022-09-30T00:00:36;12.43;;;9.90;;
2784;SDS011;57944;48.722;9.316;2022-09-30T00:03:06;20.03;;;11.93;;
2784;SDS011;57944;48.722;9.316;2022-09-30T00:05:36;19.23;;;10.50;;
2784;SDS011;57944;48.722;9.316;2022-09-30T00:08:06;19.10;;;11.17;;
2784;SDS011;57944;48.722;9.316;2022-09-30T00:10:36;25.03;;;11.13;;
2784;SDS011;57944;48.722;9.316;2022-09-30T00:13:09;15.97;;;9.73;;
2784;SDS011;57944;48.722;9.316;2022-09-30T00:18:37;14.80;;;9.20;;
2784;SDS011;57944;48.722;9.316;2022-09-30T00:21:08;17.13;;;10.07;;
2784;SDS011;57944;48.722;9.316;2022-09-30T00:23:41;22.23;;;9.90;;
2784;SDS011;57944;48.722;9.316;2022-09-30T00:26:14;16.30;;;11.00;;
2784;SDS011;57944;48.722;9.316;2022-09-30T00:28:48;15.77;;;10.73;;
2784;SDS011;57944;48.722;9.316;2022-09-30T00:31:20;22.70;;;9.67;;
2784;SDS011;57944;48.722;9.316;2022-09-30T00:33:55;20.40;;;11.13;;
2784;SDS011;57944;48.722;9.316;2022-09-30T00:36:52;15.27;;;9.77;;
2784;SDS011;57944;48.722;9.316;2022-09-30T00:39:24;15.67;;;11.30;;
2784;SDS011;57944;48.722;9.316;2022-09-30T00:44:47;18.23;;;12.00;;
2784;SDS011;57944;48.722;9.316;2022-09-30T00:47:37;17.83;;;11.20;;
2784;SDS011;57944;48.722;9.316;2022-09-30T00:50:26;16.77;;;9.77;;
2784;SDS011;57944;48.722;9.316;2022-09-30T00:53:04;19.13;;;11.53;;
2784;SDS011;57944;48.722;9.316;2022-09-30T00:58:30;16.47;;;10.53;;
2784;SDS011;57944;48.722;9.316;2022-09-30T01:01:12;16.53;;;10.00;;
2784;SDS011;57944;48.722;9.316;2022-09-30T01:06:26;16.37;;;11.23;;
2784;SDS011;57944;48.722;9.316;2022-09-30T01:11:40;15.07;;;11.20;;
2784;SDS011;57944;48.722;9.316;2022-09-30T01:14:10;13.50;;;9.80;;
2784;SDS011;57944;48.722;9.316;2022-09-30T01:16:49;16.57;;;11.60;;
2784;SDS011;57944;48.722;9.316;2022-09-30T01:19:43;17.53;;;11.23;;
2784;SDS011;57944;48.722;9.316;2022-09-30T01:22:42;16.20;;;11.37;;
2784;SDS011;57944;48.722;9.316;2022-09-30T01:25:29;13.70;;;10.50;;
2784;SDS011;57944;48.722;9.316;2022-09-30T01:28:36;14.67;;;9.23;;
2784;SDS011;57944;48.722;9.316;2022-09-30T01:31:40;18.50;;;10.77;;
2784;SDS011;57944;48.722;9.316;2022-09-30T01:34:23;12.20;;;9.47;;
2784;SDS011;57944;48.722;9.316;2022-09-30T01:37:09;18.80;;;10.63;;
2784;SDS011;57944;48.722;9.316;2022-09-30T01:39:53;19.57;;;10.30;;
2784;SDS011;57944;48.722;9.316;2022-09-30T01:42:35;15.93;;;10.53;;
2784;SDS011;57944;48.722;9.316;2022-09-30T01:45:11;23.77;;;9.67;;
2784;SDS011;57944;48.722;9.316;2022-09-30T01:50:49;16.67;;;9.03;;
2784;SDS011;57944;48.722;9.316;2022-09-30T01:53:29;19.80;;;10.03;;
2784;SDS011;57944;48.722;9.316;2022-09-30T01:56:07;14.10;;;9.23;;
2784;SDS011;57944;48.722;9.316;2022-09-30T01:59:00;13.13;;;8.70;;
2784;SDS011;57944;48.722;9.316;2022-09-30T02:01:37;17.17;;;9.60;;
2784;SDS011;57944;48.722;9.316;2022-09-30T02:04:16;13.10;;;9.17;;
2784;SDS011;57944;48.722;9.316;2022-09-30T02:06:53;15.50;;;10.07;;
2784;SDS011;57944;48.722;9.316;2022-09-30T02:09:32;15.97;;;11.37;;
2784;SDS011;57944;48.722;9.316;2022-09-30T02:12:11;22.80;;;14.13;;
2784;SDS011;57944;48.722;9.316;2022-09-30T02:14:56;25.97;;;13.80;;
2784;SDS011;57944;48.722;9.316;2022-09-30T02:17:34;19.97;;;13.93;;
2784;SDS011;57944;48.722;9.316;2022-09-30T02:20:12;21.13;;;14.37;;
2784;SDS011;57944;48.722;9.316;2022-09-30T02:22:49;21.77;;;14.07;;
2784;SDS011;57944;48.722;9.316;2022-09-30T02:25:25;22.10;;;13.53;;
2784;SDS011;57944;48.722;9.316;2022-09-30T02:28:02;22.73;;;14.07;;
2784;SDS011;57944;48.722;9.316;2022-09-30T02:30:53;21.83;;;13.57;;
2784;SDS011;57944;48.722;9.316;2022-09-30T02:33:27;21.87;;;13.40;;
2784;SDS011;57944;48.722;9.316;2022-09-30T02:36:07;19.97;;;13.93;;
2784;SDS011;57944;48.722;9.316;2022-09-30T02:44:34;16.50;;;12.20;;
2784;SDS011;57944;48.722;9.316;2022-09-30T02:47:08;20.10;;;12.80;;
2784;SDS011;57944;48.722;9.316;2022-09-30T02:49:45;19.87;;;13.53;;
2784;SDS011;57944;48.722;9.316;2022-09-30T02:52:24;16.40;;;11.67;;
2784;SDS011;57944;48.722;9.316;2022-09-30T02:55:14;17.23;;;11.30;;
2784;SDS011;57944;48.722;9.316;2022-09-30T02:57:58;16.50;;;10.93;;
2784;SDS011;57944;48.722;9.316;2022-09-30T03:00:39;21.07;;;13.10;;
2784;SDS011;57944;48.722;9.316;2022-09-30T03:03:11;16.40;;;11.70;;
2784;SDS011;57944;48.722;9.316;2022-09-30T03:05:47;18.73;;;12.50;;
2784;SDS011;57944;48.722;9.316;2022-09-30T03:08:18;24.13;;;12.00;;
2784;SDS011;57944;48.722;9.316;2022-09-30T03:10:49;25.43;;;14.00;;
2784;SDS011;57944;48.722;9.316;2022-09-30T03:13:28;20.70;;;14.57;;
2784;SDS011;57944;48.722;9.316;2022-09-30T03:16:35;21.23;;;14.50;;
2784;SDS011;57944;48.722;9.316;2022-09-30T03:19:30;21.17;;;15.20;;
2784;SDS011;57944;48.722;9.316;2022-09-30T03:22:22;19.80;;;14.40;;
2784;SDS011;57944;48.722;9.316;2022-09-30T03:25:18;21.63;;;13.90;;
2784;SDS011;57944;48.722;9.316;2022-09-30T03:28:03;19.90;;;14.80;;
2784;SDS011;57944;48.722;9.316;2022-09-30T03:30:50;22.73;;;14.37;;
2784;SDS011;57944;48.722;9.316;2022-09-30T03:33:36;17.77;;;13.10;;
2784;SDS011;57944;48.722;9.316;2022-09-30T03:36:18;23.30;;;13.17;;
2784;SDS011;57944;48.722;9.316;2022-09-30T03:38:57;21.67;;;13.33;;
2784;SDS011;57944;48.722;9.316;2022-09-30T03:41:37;23.17;;;14.47;;
2784;SDS011;57944;48.722;9.316;2022-09-30T03:44:16;16.63;;;12.47;;
2784;SDS011;57944;48.722;9.316;2022-09-30T03:46:59;21.93;;;13.33;;
2784;SDS011;57944;48.722;9.316;2022-09-30T03:49:36;20.47;;;12.80;;
2784;SDS011;57944;48.722;9.316;2022-09-30T03:52:13;21.80;;;12.47;;
2784;SDS011;57944;48.722;9.316;2022-09-30T03:54:46;20.80;;;13.57;;
2784;SDS011;57944;48.722;9.316;2022-09-30T03:57:24;23.43;;;12.57;;
2784;SDS011;57944;48.722;9.316;2022-09-30T03:59:55;23.27;;;12.90;;
2784;SDS011;57944;48.722;9.316;2022-09-30T04:02:28;20.47;;;13.27;;
2784;SDS011;57944;48.722;9.316;2022-09-30T04:04:58;18.30;;;13.63;;
2784;SDS011;57944;48.722;9.316;2022-09-30T04:07:28;19.33;;;13.50;;
2784;SDS011;57944;48.722;9.316;2022-09-30T04:09:58;19.73;;;14.00;;
2784;SDS011;57944;48.722;9.316;2022-09-30T04:12:29;17.43;;;12.70;;
2784;SDS011;57944;48.722;9.316;2022-09-30T04:14:59;23.90;;;13.87;;
2784;SDS011;57944;48.722;9.316;2022-09-30T04:17:31;22.50;;;14.93;;
2784;SDS011;57944;48.722;9.316;2022-09-30T04:20:02;29.53;;;16.50;;
2784;SDS011;57944;48.722;9.316;2022-09-30T04:22:33;24.40;;;15.57;;
2784;SDS011;57944;48.722;9.316;2022-09-30T04:25:03;28.77;;;15.20;;
2784;SDS011;57944;48.722;9.316;2022-09-30T04:27:35;22.93;;;15.60;;
2784;SDS011;57944;48.722;9.316;2022-09-30T04:30:06;22.40;;;15.67;;
2784;SDS011;57944;48.722;9.316;2022-09-30T04:32:43;26.57;;;15.57;;
2784;SDS011;57944;48.722;9.316;2022-09-30T04:35:13;28.67;;;16.77;;
2784;SDS011;57944;48.722;9.316;2022-09-30T04:37:44;31.00;;;16.47;;
2784;SDS011;57944;48.722;9.316;2022-09-30T04:40:15;36.23;;;18.57;;
2784;SDS011;57944;48.722;9.316;2022-09-30T04:42:46;29.57;;;15.50;;
2784;SDS011;57944;48.722;9.316;2022-09-30T04:45:16;25.57;;;14.87;;
2784;SDS011;57944;48.722;9.316;2022-09-30T04:47:49;30.23;;;16.80;;
2784;SDS011;57944;48.722;9.316;2022-09-30T04:50:19;27.20;;;15.23;;
2784;SDS011;57944;48.722;9.316;2022-09-30T04:52:50;32.03;;;19.10;;
2784;SDS011;57944;48.722;9.316;2022-09-30T04:55:22;42.77;;;20.23;;
2784;SDS011;57944;48.722;9.316;2022-09-30T04:57:52;36.60;;;19.87;;
2784;SDS011;57944;48.722;9.316;2022-09-30T05:00:22;39.03;;;19.03;;
2784;SDS011;57944;48.722;9.316;2022-09-30T05:02:55;31.17;;;17.90;;
2784;SDS011;57944;48.722;9.316;2022-09-30T05:05:25;33.60;;;20.50;;
2784;SDS011;57944;48.722;9.316;2022-09-30T05:07:58;36.70;;;20.93;;
2784;SDS011;57944;48.722;9.316;2022-09-30T05:10:29;36.23;;;21.57;;
2784;SDS011;57944;48.722;9.316;2022-09-30T05:13:00;32.03;;;19.63;;
2784;SDS011;57944;48.722;9.316;2022-09-30T05:15:30;24.77;;;16.63;;
2784;SDS011;57944;48.722;9.316;2022-09-30T05:18:06;30.57;;;18.07;;
2784;SDS011;57944;48.722;9.316;2022-09-30T05:20:35;32.53;;;18.33;;
2784;SDS011;57944;48.722;9.316;2022-09-30T05:23:06;31.93;;;19.00;;
2784;SDS011;57944;48.722;9.316;2022-09-30T05:25:36;33.17;;;19.40;;
2784;SDS011;57944;48.722;9.316;2022-09-30T05:28:06;42.40;;;19.90;;
2784;SDS011;57944;48.722;9.316;2022-09-30T05:30:36;35.57;;;20.13;;
2784;SDS011;57944;48.722;9.316;2022-09-30T05:33:10;30.90;;;19.57;;
2784;SDS011;57944;48.722;9.316;2022-09-30T05:35:42;31.80;;;18.17;;
2784;SDS011;57944;48.722;9.316;2022-09-30T05:38:12;35.67;;;19.47;;
2784;SDS011;57944;48.722;9.316;2022-09-30T05:40:43;38.67;;;20.30;;
2784;SDS011;57944;48.722;9.316;2022-09-30T05:43:13;30.53;;;17.70;;
2784;SDS011;57944;48.722;9.316;2022-09-30T05:45:50;33.80;;;18.80;;
2784;SDS011;57944;48.722;9.316;2022-09-30T05:48:24;31.50;;;19.63;;
2784;SDS011;57944;48.722;9.316;2022-09-30T05:50:55;36.70;;;20.90;;
2784;SDS011;57944;48.722;9.316;2022-09-30T05:53:27;28.47;;;18.53;;
2784;SDS011;57944;48.722;9.316;2022-09-30T05:55:58;30.17;;;18.20;;
2784;SDS011;57944;48.722;9.316;2022-09-30T05:58:28;28.57;;;17.80;;
2784;SDS011;57944;48.722;9.316;2022-09-30T06:01:02;36.20;;;20.43;;
2784;SDS011;57944;48.722;9.316;2022-09-30T06:03:42;28.00;;;17.50;;
2784;SDS011;57944;48.722;9.316;2022-09-30T06:06:13;34.23;;;17.37;;
2784;SDS011;57944;48.722;9.316;2022-09-30T06:08:44;31.70;;;17.57;;
2784;SDS011;57944;48.722;9.316;2022-09-30T06:11:16;35.00;;;19.47;;
2784;SDS011;57944;48.722;9.316;2022-09-30T06:13:50;36.67;;;19.50;;
2784;SDS011;57944;48.722;9.316;2022-09-30T06:16:21;41.37;;;21.73;;
2784;SDS011;57944;48.722;9.316;2022-09-30T06:18:54;46.77;;;25.70;;
2784;SDS011;57944;48.722;9.316;2022-09-30T06:21:24;52.00;;;23.77;;
2784;SDS011;57944;48.722;9.316;2022-09-30T06:23:55;69.50;;;24.70;;
2784;SDS011;57944;48.722;9.316;2022-09-30T06:26:25;74.13;;;24.50;;
2784;SDS011;57944;48.722;9.316;2022-09-30T06:28:55;43.93;;;21.13;;
2784;SDS011;57944;48.722;9.316;2022-09-30T06:31:25;45.03;;;21.23;;
2784;SDS011;57944;48.722;9.316;2022-09-30T06:33:59;54.37;;;20.30;;
2784;SDS011;57944;48.722;9.316;2022-09-30T06:36:30;46.80;;;20.67;;
2784;SDS011;57944;48.722;9.316;2022-09-30T06:39:00;41.23;;;18.77;;
2784;SDS011;57944;48.722;9.316;2022-09-30T06:41:38;29.70;;;19.20;;
2784;SDS011;57944;48.722;9.316;2022-09-30T06:44:17;36.70;;;18.60;;
2784;SDS011;57944;48.722;9.316;2022-09-30T06:46:47;34.27;;;17.40;;
2784;SDS011;57944;48.722;9.316;2022-09-30T06:49:22;41.80;;;16.67;;
2784;SDS011;57944;48.722;9.316;2022-09-30T06:52:02;37.53;;;16.50;;
2784;SDS011;57944;48.722;9.316;2022-09-30T06:54:32;35.33;;;15.00;;
2784;SDS011;57944;48.722;9.316;2022-09-30T06:57:03;28.23;;;15.13;;
2784;SDS011;57944;48.722;9.316;2022-09-30T06:59:33;37.27;;;14.90;;
2784;SDS011;57944;48.722;9.316;2022-09-30T07:02:03;32.50;;;14.93;;
2784;SDS011;57944;48.722;9.316;2022-09-30T07:04:37;29.80;;;12.83;;
2784;SDS011;57944;48.722;9.316;2022-09-30T07:07:07;40.10;;;15.23;;
2784;SDS011;57944;48.722;9.316;2022-09-30T07:09:37;23.67;;;13.40;;
2784;SDS011;57944;48.722;9.316;2022-09-30T07:12:08;29.50;;;13.40;;
2784;SDS011;57944;48.722;9.316;2022-09-30T07:14:39;21.40;;;13.70;;
2784;SDS011;57944;48.722;9.316;2022-09-30T07:17:09;44.07;;;16.80;;
2784;SDS011;57944;48.722;9.316;2022-09-30T07:19:42;36.03;;;17.10;;
2784;SDS011;57944;48.722;9.316;2022-09-30T07:22:12;25.50;;;13.40;;
2784;SDS011;57944;48.722;9.316;2022-09-30T07:25:00;21.90;;;14.23;;
2784;SDS011;57944;48.722;9.316;2022-09-30T07:27:32;20.33;;;13.70;;
2784;SDS011;57944;48.722;9.316;2022-09-30T07:30:03;26.17;;;15.13;;
2784;SDS011;57944;48.722;9.316;2022-09-30T07:32:43;22.43;;;14.60;;
2784;SDS011;57944;48.722;9.316;2022-09-30T07:35:16;18.13;;;12.67;;
2784;SDS011;57944;48.722;9.316;2022-09-30T07:37:47;16.77;;;12.13;;
2784;SDS011;57944;48.722;9.316;2022-09-30T07:40:17;19.60;;;13.40;;
2784;SDS011;57944;48.722;9.316;2022-09-30T07:42:47;16.50;;;12.30;;
2784;SDS011;57944;48.722;9.316;2022-09-30T07:45:17;21.63;;;12.40;;
2784;SDS011;57944;48.722;9.316;2022-09-30T07:47:47;17.03;;;12.60;;
2784;SDS011;57944;48.722;9.316;2022-09-30T07:50:21;16.63;;;11.27;;
2784;SDS011;57944;48.722;9.316;2022-09-30T07:52:52;18.60;;;12.30;;
2784;SDS011;57944;48.722;9.316;2022-09-30T07:55:22;16.10;;;11.47;;
2784;SDS011;57944;48.722;9.316;2022-09-30T07:57:52;15.73;;;11.87;;
2784;SDS011;57944;48.722;9.316;2022-09-30T08:00:22;13.87;;;10.77;;
2784;SDS011;57944;48.722;9.316;2022-09-30T08:03:08;14.07;;;11.73;;
2784;SDS011;57944;48.722;9.316;2022-09-30T08:05:41;15.37;;;11.40;;
2784;SDS011;57944;48.722;9.316;2022-09-30T08:08:14;16.13;;;10.93;;
2784;SDS011;57944;48.722;9.316;2022-09-30T08:10:46;12.80;;;10.37;;
2784;SDS011;57944;48.722;9.316;2022-09-30T08:13:16;13.30;;;11.03;;
2784;SDS011;57944;48.722;9.316;2022-09-30T08:15:46;15.47;;;11.60;;
2784;SDS011;57944;48.722;9.316;2022-09-30T08:18:17;14.03;;;10.50;;
2784;SDS011;57944;48.722;9.316;2022-09-30T08:20:50;12.77;;;10.70;;
2784;SDS011;57944;48.722;9.316;2022-09-30T08:23:20;14.27;;;10.47;;
2784;SDS011;57944;48.722;9.316;2022-09-30T08:25:50;13.67;;;11.57;;
2784;SDS011;57944;48.722;9.316;2022-09-30T08:28:20;14.77;;;10.73;;
2784;SDS011;57944;48.722;9.316;2022-09-30T08:30:51;17.47;;;11.07;;
2784;SDS011;57944;48.722;9.316;2022-09-30T08:33:21;17.20;;;11.13;;
2784;SDS011;57944;48.722;9.316;2022-09-30T08:35:53;15.10;;;11.10;;
2784;SDS011;57944;48.722;9.316;2022-09-30T08:38:24;13.60;;;10.70;;
2784;SDS011;57944;48.722;9.316;2022-09-30T08:40:57;18.83;;;11.87;;
2784;SDS011;57944;48.722;9.316;2022-09-30T08:43:54;18.03;;;11.13;;
2784;SDS011;57944;48.722;9.316;2022-09-30T08:46:39;20.00;;;11.60;;
2784;SDS011;57944;48.722;9.316;2022-09-30T08:49:32;13.03;;;9.90;;
2784;SDS011;57944;48.722;9.316;2022-09-30T08:52:25;24.37;;;12.30;;
2784;SDS011;57944;48.722;9.316;2022-09-30T08:55:14;14.37;;;10.60;;
2784;SDS011;57944;48.722;9.316;2022-09-30T08:57:51;13.50;;;10.90;;
2784;SDS011;57944;48.722;9.316;2022-09-30T09:00:24;16.67;;;10.80;;
2784;SDS011;57944;48.722;9.316;2022-09-30T09:02:55;19.30;;;13.73;;
2784;SDS011;57944;48.722;9.316;2022-09-30T09:05:31;16.50;;;11.67;;
2784;SDS011;57944;48.722;9.316;2022-09-30T09:08:22;18.60;;;12.83;;
2784;SDS011;57944;48.722;9.316;2022-09-30T09:11:05;17.10;;;12.93;;
2784;SDS011;57944;48.722;9.316;2022-09-30T09:13:50;15.23;;;11.97;;
2784;SDS011;57944;48.722;9.316;2022-09-30T09:16:28;15.00;;;11.77;;
2784;SDS011;57944;48.722;9.316;2022-09-30T09:19:05;11.90;;;9.80;;
2784;SDS011;57944;48.722;9.316;2022-09-30T09:21:43;17.33;;;11.50;;
2784;SDS011;57944;48.722;9.316;2022-09-30T09:24:25;16.17;;;11.67;;
2784;SDS011;57944;48.722;9.316;2022-09-30T09:26:58;16.10;;;12.40;;
2784;SDS011;57944;48.722;9.316;2022-09-30T09:29:40;12.93;;;10.97;;
2784;SDS011;57944;48.722;9.316;2022-09-30T09:32:23;14.97;;;12.43;;
2784;SDS011;57944;48.722;9.316;2022-09-30T09:34:57;16.23;;;11.93;;
2784;SDS011;57944;48.722;9.316;2022-09-30T09:37:36;12.90;;;11.30;;
2784;SDS011;57944;48.722;9.316;2022-09-30T09:40:37;13.40;;;11.37;;
2784;SDS011;57944;48.722;9.316;2022-09-30T09:43:25;16.80;;;12.60;;
2784;SDS011;57944;48.722;9.316;2022-09-30T09:46:16;14.70;;;12.17;;
2784;SDS011;57944;48.722;9.316;2022-09-30T09:55:19;15.50;;;12.50;;
2784;SDS011;57944;48.722;9.316;2022-09-30T09:58:06;14.40;;;12.20;;
2784;SDS011;57944;48.722;9.316;2022-09-30T10:00:40;14.30;;;11.90;;
2784;SDS011;57944;48.722;9.316;2022-09-30T10:03:24;12.03;;;10.00;;
2784;SDS011;57944;48.722;9.316;2022-09-30T10:05:58;14.60;;;10.90;;
2784;SDS011;57944;48.722;9.316;2022-09-30T10:08:33;12.33;;;11.03;;
2784;SDS011;57944;48.722;9.316;2022-09-30T10:11:07;12.70;;;8.90;;
2784;SDS011;57944;48.722;9.316;2022-09-30T10:13:51;11.80;;;9.03;;
2784;SDS011;57944;48.722;9.316;2022-09-30T10:16:30;19.03;;;9.67;;
2784;SDS011;57944;48.722;9.316;2022-09-30T10:19:03;14.70;;;11.67;;
2784;SDS011;57944;48.722;9.316;2022-09-30T10:21:48;9.73;;;8.00;;
2784;SDS011;57944;48.722;9.316;2022-09-30T10:24:25;9.23;;;7.77;;
2784;SDS011;57944;48.722;9.316;2022-09-30T10:26:58;13.90;;;10.07;;
2784;SDS011;57944;48.722;9.316;2022-09-30T10:29:32;10.17;;;7.47;;
2784;SDS011;57944;48.722;9.316;2022-09-30T10:32:05;15.43;;;8.50;;
2784;SDS011;57944;48.722;9.316;2022-09-30T10:34:37;10.57;;;9.27;;
2784;SDS011;57944;48.722;9.316;2022-09-30T10:37:13;8.30;;;5.63;;
2784;SDS011;57944;48.722;9.316;2022-09-30T10:39:50;12.93;;;7.63;;
2784;SDS011;57944;48.722;9.316;2022-09-30T10:42:27;10.23;;;8.90;;
2784;SDS011;57944;48.722;9.316;2022-09-30T10:45:05;10.60;;;8.73;;
2784;SDS011;57944;48.722;9.316;2022-09-30T10:47:49;12.70;;;7.87;;
2784;SDS011;57944;48.722;9.316;2022-09-30T10:50:24;11.27;;;8.23;;
2784;SDS011;57944;48.722;9.316;2022-09-30T10:52:55;9.27;;;6.37;;
2784;SDS011;57944;48.722;9.316;2022-09-30T10:55:32;9.60;;;7.67;;
2784;SDS011;57944;48.722;9.316;2022-09-30T10:58:19;8.93;;;6.57;;
2784;SDS011;57944;48.722;9.316;2022-09-30T11:01:01;9.27;;;6.40;;
2784;SDS011;57944;48.722;9.316;2022-09-30T11:03:46;7.63;;;5.23;;
2784;SDS011;57944;48.722;9.316;2022-09-30T11:06:26;9.47;;;5.10;;
2784;SDS011;57944;48.722;9.316;2022-09-30T11:09:01;6.60;;;4.07;;
2784;SDS011;57944;48.722;9.316;2022-09-30T11:11:38;7.67;;;5.10;;
2784;SDS011;57944;48.722;9.316;2022-09-30T11:14:21;5.77;;;4.00;;
2784;SDS011;57944;48.722;9.316;2022-09-30T11:17:08;6.20;;;4.57;;
2784;SDS011;57944;48.722;9.316;2022-09-30T11:19:59;7.20;;;4.40;;
2784;SDS011;57944;48.722;9.316;2022-09-30T11:22:45;6.70;;;4.20;;
2784;SDS011;57944;48.722;9.316;2022-09-30T11:25:25;9.30;;;4.00;;
2784;SDS011;57944;48.722;9.316;2022-09-30T11:28:13;7.90;;;4.80;;
2784;SDS011;57944;48.722;9.316;2022-09-30T11:31:13;8.57;;;4.43;;
2784;SDS011;57944;48.722;9.316;2022-09-30T11:34:12;5.17;;;3.83;;
2784;SDS011;57944;48.722;9.316;2022-09-30T11:37:07;4.80;;;3.57;;
2784;SDS011;57944;48.722;9.316;2022-09-30T11:39:53;5.10;;;3.60;;
2784;SDS011;57944;48.722;9.316;2022-09-30T11:42:44;5.23;;;3.93;;
2784;SDS011;57944;48.722;9.316;2022-09-30T11:45:27;7.30;;;3.60;;
2784;SDS011;57944;48.722;9.316;2022-09-30T11:51:17;9.43;;;3.30;;
2784;SDS011;57944;48.722;9.316;2022-09-30T11:54:00;3.67;;;2.63;;
2784;SDS011;57944;48.722;9.316;2022-09-30T11:56:50;5.03;;;3.60;;
2784;SDS011;57944;48.722;9.316;2022-09-30T11:59:43;4.07;;;2.90;;
2784;SDS011;57944;48.722;9.316;2022-09-30T12:02:24;4.77;;;2.60;;
2784;SDS011;57944;48.722;9.316;2022-09-30T12:05:04;4.90;;;2.90;;
2784;SDS011;57944;48.722;9.316;2022-09-30T12:07:48;3.40;;;2.27;;
2784;SDS011;57944;48.722;9.316;2022-09-30T12:10:26;6.40;;;2.83;;
2784;SDS011;57944;48.722;9.316;2022-09-30T12:13:03;5.03;;;2.90;;
2784;SDS011;57944;48.722;9.316;2022-09-30T12:15:40;5.87;;;2.90;;
2784;SDS011;57944;48.722;9.316;2022-09-30T12:18:13;5.87;;;3.27;;
2784;SDS011;57944;48.722;9.316;2022-09-30T12:20:51;4.60;;;3.23;;
2784;SDS011;57944;48.722;9.316;2022-09-30T12:23:31;6.83;;;2.73;;
2784;SDS011;57944;48.722;9.316;2022-09-30T12:26:11;3.87;;;2.47;;
2784;SDS011;57944;48.722;9.316;2022-09-30T12:28:45;7.27;;;2.13;;
2784;SDS011;57944;48.722;9.316;2022-09-30T12:31:42;5.07;;;2.80;;
2784;SDS011;57944;48.722;9.316;2022-09-30T12:34:36;4.70;;;2.83;;
2784;SDS011;57944;48.722;9.316;2022-09-30T12:37:31;3.93;;;2.70;;
2784;SDS011;57944;48.722;9.316;2022-09-30T12:40:27;6.70;;;2.33;;
2784;SDS011;57944;48.722;9.316;2022-09-30T12:43:27;4.23;;;1.93;;
2784;SDS011;57944;48.722;9.316;2022-09-30T12:46:25;5.23;;;2.63;;
2784;SDS011;57944;48.722;9.316;2022-09-30T12:49:18;4.68;;;2.70;;
2784;SDS011;57944;48.722;9.316;2022-09-30T12:51:53;5.30;;;2.70;;
2784;SDS011;57944;48.722;9.316;2022-09-30T12:54:29;5.20;;;2.53;;
2784;SDS011;57944;48.722;9.316;2022-09-30T12:57:06;4.10;;;2.30;;
2784;SDS011;57944;48.722;9.316;2022-09-30T12:59:50;3.60;;;2.53;;
2784;SDS011;57944;48.722;9.316;2022-09-30T13:02:26;3.23;;;1.83;;
2784;SDS011;57944;48.722;9.316;2022-09-30T13:08:24;6.07;;;2.27;;
2784;SDS011;57944;48.722;9.316;2022-09-30T13:14:17;4.47;;;2.20;;
2784;SDS011;57944;48.722;9.316;2022-09-30T13:19:56;4.80;;;2.10;;
2784;SDS011;57944;48.722;9.316;2022-09-30T13:25:26;3.40;;;2.03;;
2784;SDS011;57944;48.722;9.316;2022-09-30T13:28:26;4.63;;;1.90;;
2784;SDS011;57944;48.722;9.316;2022-09-30T13:31:14;5.53;;;2.20;;
2784;SDS011;57944;48.722;9.316;2022-09-30T13:34:03;5.17;;;1.60;;
2784;SDS011;57944;48.722;9.316;2022-09-30T13:36:43;3.27;;;1.83;;
2784;SDS011;57944;48.722;9.316;2022-09-30T13:39:28;8.10;;;2.47;;
2784;SDS011;57944;48.722;9.316;2022-09-30T13:42:13;3.40;;;2.30;;
2784;SDS011;57944;48.722;9.316;2022-09-30T13:44:57;7.13;;;2.57;;
2784;SDS011;57944;48.722;9.316;2022-09-30T13:47:38;3.17;;;1.63;;
2784;SDS011;57944;48.722;9.316;2022-09-30T13:50:14;3.27;;;1.77;;
2784;SDS011;57944;48.722;9.316;2022-09-30T13:52:49;4.10;;;2.50;;
2784;SDS011;57944;48.722;9.316;2022-09-30T13:55:26;4.50;;;2.60;;
2784;SDS011;57944;48.722;9.316;2022-09-30T13:58:06;3.70;;;2.43;;
2784;SDS011;57944;48.722;9.316;2022-09-30T14:01:06;4.50;;;3.00;;
2784;SDS011;57944;48.722;9.316;2022-09-30T14:04:03;3.87;;;2.37;;
2784;SDS011;57944;48.722;9.316;2022-09-30T14:07:07;4.50;;;2.37;;
2784;SDS011;57944;48.722;9.316;2022-09-30T14:09:54;3.50;;;2.07;;
2784;SDS011;57944;48.722;9.316;2022-09-30T14:12:58;4.40;;;1.90;;
2784;SDS011;57944;48.722;9.316;2022-09-30T14:15:50;4.30;;;2.30;;
2784;SDS011;57944;48.722;9.316;2022-09-30T14:19:07;3.83;;;1.80;;
2784;SDS011;57944;48.722;9.316;2022-09-30T14:22:10;4.57;;;2.40;;
2784;SDS011;57944;48.722;9.316;2022-09-30T14:24:44;4.53;;;1.93;;
2784;SDS011;57944;48.722;9.316;2022-09-30T14:27:23;3.80;;;2.50;;
2784;SDS011;57944;48.722;9.316;2022-09-30T14:30:13;5.27;;;1.90;;
2784;SDS011;57944;48.722;9.316;2022-09-30T14:32:49;7.53;;;2.33;;
2784;SDS011;57944;48.722;9.316;2022-09-30T14:35:28;5.83;;;2.37;;
2784;SDS011;57944;48.722;9.316;2022-09-30T14:38:01;3.47;;;2.07;;
2784;SDS011;57944;48.722;9.316;2022-09-30T14:40:36;5.37;;;3.03;;
2784;SDS011;57944;48.722;9.316;2022-09-30T14:43:16;6.40;;;2.30;;
2784;SDS011;57944;48.722;9.316;2022-09-30T14:45:57;5.30;;;2.10;;
2784;SDS011;57944;48.722;9.316;2022-09-30T14:48:36;3.30;;;1.70;;
2784;SDS011;57944;48.722;9.316;2022-09-30T14:51:11;4.20;;;2.67;;
2784;SDS011;57944;48.722;9.316;2022-09-30T14:53:52;5.17;;;1.73;;
2784;SDS011;57944;48.722;9.316;2022-09-30T14:56:27;3.17;;;1.67;;
2784;SDS011;57944;48.722;9.316;2022-09-30T14:59:10;4.97;;;2.03;;
2784;SDS011;57944;48.722;9.316;2022-09-30T15:01:48;7.67;;;2.40;;
2784;SDS011;57944;48.722;9.316;2022-09-30T15:04:24;4.50;;;2.23;;
2784;SDS011;57944;48.722;9.316;2022-09-30T15:07:00;4.23;;;1.90;;
2784;SDS011;57944;48.722;9.316;2022-09-30T15:09:34;3.73;;;1.87;;
2784;SDS011;57944;48.722;9.316;2022-09-30T15:12:09;3.87;;;1.67;;
2784;SDS011;57944;48.722;9.316;2022-09-30T15:14:44;5.57;;;1.97;;
2784;SDS011;57944;48.722;9.316;2022-09-30T15:17:16;4.00;;;1.80;;
2784;SDS011;57944;48.722;9.316;2022-09-30T15:19:49;6.10;;;1.97;;
2784;SDS011;57944;48.722;9.316;2022-09-30T15:22:24;5.07;;;2.00;;
2784;SDS011;57944;48.722;9.316;2022-09-30T15:24:57;4.63;;;2.00;;
2784;SDS011;57944;48.722;9.316;2022-09-30T15:27:28;3.83;;;2.30;;
2784;SDS011;57944;48.722;9.316;2022-09-30T15:30:03;4.43;;;2.53;;
2784;SDS011;57944;48.722;9.316;2022-09-30T15:32:56;4.53;;;2.67;;
2784;SDS011;57944;48.722;9.316;2022-09-30T15:35:29;3.33;;;2.37;;
2784;SDS011;57944;48.722;9.316;2022-09-30T15:38:08;7.73;;;3.37;;
2784;SDS011;57944;48.722;9.316;2022-09-30T15:40:59;7.00;;;3.43;;
2784;SDS011;57944;48.722;9.316;2022-09-30T15:43:37;6.60;;;2.90;;
2784;SDS011;57944;48.722;9.316;2022-09-30T15:46:24;5.60;;;1.90;;
2784;SDS011;57944;48.722;9.316;2022-09-30T15:49:01;5.13;;;2.73;;
2784;SDS011;57944;48.722;9.316;2022-09-30T15:51:35;5.43;;;2.40;;
2784;SDS011;57944;48.722;9.316;2022-09-30T15:57:14;4.03;;;2.27;;
2784;SDS011;57944;48.722;9.316;2022-09-30T16:00:08;6.80;;;2.67;;
2784;SDS011;57944;48.722;9.316;2022-09-30T16:03:19;4.53;;;2.17;;
2784;SDS011;57944;48.722;9.316;2022-09-30T16:06:03;5.03;;;2.10;;
2784;SDS011;57944;48.722;9.316;2022-09-30T16:08:38;4.37;;;2.87;;
2784;SDS011;57944;48.722;9.316;2022-09-30T16:11:21;4.43;;;2.83;;
2784;SDS011;57944;48.722;9.316;2022-09-30T16:13:56;3.67;;;2.10;;
2784;SDS011;57944;48.722;9.316;2022-09-30T16:16:29;5.57;;;2.27;;
2784;SDS011;57944;48.722;9.316;2022-09-30T16:19:03;3.83;;;2.13;;
2784;SDS011;57944;48.722;9.316;2022-09-30T16:21:39;3.60;;;1.90;;
2784;SDS011;57944;48.722;9.316;2022-09-30T16:27:30;3.57;;;1.90;;
2784;SDS011;57944;48.722;9.316;2022-09-30T16:30:00;5.73;;;2.17;;
2784;SDS011;57944;48.722;9.316;2022-09-30T16:32:34;3.83;;;2.40;;
2784;SDS011;57944;48.722;9.316;2022-09-30T16:35:13;3.90;;;2.60;;
2784;SDS011;57944;48.722;9.316;2022-09-30T16:37:48;8.00;;;4.50;;
2784;SDS011;57944;48.722;9.316;2022-09-30T16:40:20;5.20;;;3.40;;
2784;SDS011;57944;48.722;9.316;2022-09-30T16:42:56;4.70;;;2.80;;